Time;durP1;ratioP1;P1;durP2;ratioP2;P2;SDS_P1;SDS_P2;PMS_P1;PMS_P2;Temp;Humidity;BMP_temperature;BMP_pressure;BME280_temperature;BME280_humidity;BME280_pressure;Samples;Min_cycle;Max_cycle;Signal;HPM_P1;HPM_P2
2023/10/24 00:00:15;;;;;;;19.48;6.78;;;;;;;17.27;64.39;99762.69;5090494;28;20123;-82
2023/10/24 00:02:41;;;;;;;21.27;7.88;;;;;;;17.43;63.82;99780.72;5103759;28;20064;-82
2023/10/24 00:05:07;;;;;;;37.60;10.32;;;;;;;17.32;64.41;99784.69;5111788;28;20432;-82
2023/10/24 00:07:32;;;;;;;16.88;7.25;;;;;;;16.76;65.82;99764.72;5110655;28;20083;-81
2023/10/24 00:09:58;;;;;;;16.55;9.40;;;;;;;16.84;65.72;99780.38;5111142;28;20035;-82
2023/10/24 00:12:23;;;;;;;19.92;7.13;;;;;;;16.95;65.28;99790.66;5112208;28;20483;-81
2023/10/24 00:14:49;;;;;;;25.30;6.82;;;;;;;17.10;64.86;99795.38;5111271;28;20035;-81
2023/10/24 00:17:14;;;;;;;23.45;8.13;;;;;;;16.90;64.93;99769.53;5091933;28;20042;-82
2023/10/24 00:19:40;;;;;;;19.20;6.15;;;;;;;16.98;65.20;99779.88;5110786;28;20066;-81
2023/10/24 00:22:05;;;;;;;22.67;8.77;;;;;;;16.98;64.70;99775.41;5110851;28;20473;-82
2023/10/24 00:24:31;;;;;;;23.85;8.65;;;;;;;17.06;64.66;99784.91;5112171;28;20122;-82
2023/10/24 00:26:57;;;;;;;18.45;7.45;;;;;;;16.85;66.06;99781.25;5110776;28;20070;-82
2023/10/24 00:29:23;;;;;;;12.40;6.03;;;;;;;16.87;65.94;99780.31;5110549;28;20024;-81
2023/10/24 00:31:49;;;;;;;16.77;8.35;;;;;;;16.89;65.12;99766.91;5092291;28;20027;-81
2023/10/24 00:34:16;;;;;;;19.08;7.55;;;;;;;16.79;65.44;99748.59;5113073;28;20036;-81
2023/10/24 00:36:43;;;;;;;19.98;7.70;;;;;;;16.75;65.82;99764.78;5114272;28;20485;-82
2023/10/24 00:39:09;;;;;;;14.65;7.68;;;;;;;16.80;65.74;99776.09;5114626;28;20079;-81
2023/10/24 00:41:34;;;;;;;24.75;8.48;;;;;;;16.70;65.45;99769.38;5114753;28;20034;-81
2023/10/24 00:44:00;;;;;;;14.65;6.32;;;;;;;16.62;65.59;99772.34;5115448;27;20500;-81
2023/10/24 00:46:26;;;;;;;15.75;6.30;;;;;;;16.56;65.98;99767.25;5114468;28;20069;-81
2023/10/24 00:48:53;;;;;;;14.85;6.50;;;;;;;16.54;66.09;99771.78;5114657;28;20028;-81
2023/10/24 00:51:19;;;;;;;17.35;6.95;;;;;;;16.46;66.12;99764.09;5114702;27;20569;-82
2023/10/24 00:53:46;;;;;;;18.85;6.22;;;;;;;16.45;65.78;99765.91;5115651;27;20374;-82
2023/10/24 00:56:12;;;;;;;19.95;6.75;;;;;;;16.25;65.94;99747.13;5113922;28;20034;-82
2023/10/24 00:58:39;;;;;;;20.35;6.47;;;;;;;16.23;66.14;99757.84;5114164;28;20055;-81
2023/10/24 01:01:09;;;;;;;27.10;6.13;;;;;;;16.27;66.01;99775.44;5113715;28;20531;-82
2023/10/24 01:03:34;;;;;;;15.88;6.70;;;;;;;16.21;66.68;99782.78;5114282;28;20028;-81
2023/10/24 01:06:00;;;;;;;17.15;7.00;;;;;;;16.03;67.14;99768.34;5114337;27;20027;-82
2023/10/24 01:08:26;;;;;;;16.08;6.30;;;;;;;15.93;68.40;99763.38;5114034;28;20038;-81
2023/10/24 01:10:51;;;;;;;15.63;6.82;;;;;;;16.13;67.99;99772.44;5114465;27;20032;-81
2023/10/24 01:13:17;;;;;;;18.65;6.22;;;;;;;16.14;67.69;99757.31;5124643;27;20028;-81
2023/10/24 01:15:42;;;;;;;21.20;7.25;;;;;;;16.04;67.36;99755.00;5117935;27;20050;-82
2023/10/24 01:18:08;;;;;;;22.60;6.45;;;;;;;16.04;67.28;99759.47;5134490;27;20027;-81
2023/10/24 01:20:39;;;;;;;19.98;7.05;;;;;;;15.95;67.65;99757.13;5133799;27;20051;-81
2023/10/24 01:23:06;;;;;;;14.00;6.60;;;;;;;16.02;67.75;99761.28;5134142;27;20109;-80
2023/10/24 01:25:37;;;;;;;18.92;5.78;;;;;;;16.08;67.36;99777.03;5134254;27;20496;-81
2023/10/24 01:28:04;;;;;;;16.98;7.38;;;;;;;16.05;67.15;99774.47;5132058;27;20122;-80
2023/10/24 01:30:30;;;;;;;14.43;7.30;;;;;;;16.04;66.26;99768.28;5134061;27;20035;-81
2023/10/24 01:32:55;;;;;;;23.40;7.35;;;;;;;15.90;67.40;99781.22;5133907;27;20027;-80
2023/10/24 01:35:20;;;;;;;;;;;;;;;15.81;67.88;99773.59;5134492;27;20034;-80
2023/10/24 01:37:46;;;;;;;13.07;5.57;;;;;;;15.90;67.83;99775.91;5131751;27;20288;-80
2023/10/24 01:40:11;;;;;;;14.00;5.75;;;;;;;15.87;67.70;99774.22;5133953;27;20019;-81
2023/10/24 01:42:38;;;;;;;16.67;6.53;;;;;;;15.80;68.19;99763.84;5133874;27;20026;-81
2023/10/24 01:45:04;;;;;;;13.32;5.40;;;;;;;15.78;67.56;99741.78;5134033;27;20037;-81
2023/10/24 01:47:30;;;;;;;19.38;5.30;;;;;;;15.81;67.40;99757.63;5121803;27;20493;-81
2023/10/24 01:49:55;;;;;;;23.83;6.85;;;;;;;15.97;67.64;99779.22;5113342;28;20084;-81
2023/10/24 01:52:21;;;;;;;18.65;5.07;;;;;;;15.68;67.52;99762.47;5112849;28;20027;-82
2023/10/24 01:54:46;;;;;;;;;;;;;;;15.62;67.77;99783.97;5113151;28;20464;-82
2023/10/24 01:57:12;;;;;;;11.65;4.95;;;;;;;15.48;67.63;99764.03;5094488;28;19911;-82
2023/10/24 01:59:37;;;;;;;18.85;6.47;;;;;;;15.58;67.78;99783.19;5113634;27;20035;-82
2023/10/24 02:02:03;;;;;;;13.25;6.22;;;;;;;15.50;67.85;99759.50;5113124;28;20515;-82
2023/10/24 02:04:28;;;;;;;;;;;;;;;15.51;67.93;99773.69;5113238;28;20110;-82
2023/10/24 02:06:54;;;;;;;16.60;6.38;;;;;;;15.49;68.22;99762.22;5112817;28;19918;-82
2023/10/24 02:09:19;;;;;;;21.40;6.65;;;;;;;15.61;67.90;99755.63;5094924;28;20047;-82
2023/10/24 02:11:45;;;;;;;11.90;4.47;;;;;;;15.53;67.34;99763.88;5112716;28;20088;-83
2023/10/24 02:14:10;;;;;;;25.38;6.63;;;;;;;15.52;67.82;99771.00;5112532;28;20058;-81
2023/10/24 02:16:36;;;;;;;21.60;6.15;;;;;;;15.54;68.27;99761.16;5112766;28;20485;-82
2023/10/24 02:19:01;;;;;;;12.65;4.80;;;;;;;15.42;68.57;99747.44;5113203;28;20059;-81
2023/10/24 02:21:27;;;;;;;15.75;4.78;;;;;;;15.57;68.56;99779.66;5113243;27;20027;-82
2023/10/24 02:23:52;;;;;;;17.55;6.75;;;;;;;15.50;68.87;99762.19;5094344;28;20031;-81
2023/10/24 02:26:18;;;;;;;12.45;5.45;;;;;;;15.27;68.98;99725.75;5112272;28;20031;-81
2023/10/24 02:28:43;;;;;;;21.05;5.63;;;;;;;15.40;68.95;99752.81;5112017;28;20027;-81
2023/10/24 02:31:10;;;;;;;;;;;;;;;15.46;69.76;99775.63;5113698;27;20461;-80
2023/10/24 02:33:36;;;;;;;9.95;5.40;;;;;;;15.33;69.96;99767.22;5119272;27;19923;-81
2023/10/24 02:36:09;;;;;;;18.92;4.68;;;;;;;15.40;70.32;99760.78;5095553;28;20039;-81
2023/10/24 02:38:34;;;;;;;20.45;5.68;;;;;;;15.50;70.68;99787.91;5116033;27;20026;-82
2023/10/24 02:41:00;;;;;;;22.20;5.63;;;;;;;15.44;70.28;99778.34;5130242;27;20019;-82
2023/10/24 02:43:26;;;;;;;11.30;6.88;;;;;;;15.56;69.87;99791.22;5132014;27;20054;-81
2023/10/24 02:45:51;;;;;;;15.32;5.80;;;;;;;15.26;70.33;99778.94;5132560;27;20049;-82
2023/10/24 02:48:17;;;;;;;19.25;6.18;;;;;;;15.37;70.43;99785.66;5132243;27;20476;-81
2023/10/24 02:50:43;;;;;;;11.77;5.50;;;;;;;15.48;70.18;99801.25;5131402;27;20113;-82
2023/10/24 02:53:08;;;;;;;;;;;;;;;15.53;69.73;99807.25;5132109;27;20031;-82
2023/10/24 02:55:34;;;;;;;19.27;4.78;;;;;;;15.42;69.36;99788.16;5132703;27;20309;-83
2023/10/24 02:58:00;;;;;;;19.75;5.32;;;;;;;15.40;68.88;99787.34;5114128;27;20412;-82
2023/10/24 03:00:25;;;;;;;17.08;4.60;;;;;;;15.32;69.05;99778.75;5111749;28;20035;-82
2023/10/24 03:02:50;;;;;;;;;;;;;;;15.46;68.89;99800.44;5113133;27;20493;-81
2023/10/24 03:05:16;;;;;;;25.52;6.25;;;;;;;15.31;68.28;99769.91;5111567;28;20010;-81
2023/10/24 03:07:41;;;;;;;16.15;6.38;;;;;;;15.47;68.51;99794.19;5121142;27;20031;-82
2023/10/24 03:10:07;;;;;;;17.95;5.60;;;;;;;15.53;68.75;99804.59;5132077;27;20114;-81
2023/10/24 03:12:33;;;;;;;11.18;5.80;;;;;;;15.38;69.15;99782.09;5111836;27;20033;-80
2023/10/24 03:14:58;;;;;;;15.70;5.68;;;;;;;15.45;69.33;99793.38;5111721;27;20483;-80
2023/10/24 03:17:24;;;;;;;26.65;6.00;;;;;;;15.29;68.93;99771.75;5111756;28;20110;-81
2023/10/24 03:19:49;;;;;;;11.80;5.97;;;;;;;15.33;69.11;99773.38;5129665;27;20031;-81
2023/10/24 03:22:15;;;;;;;;;;;;;;;15.40;68.75;99796.19;5131802;27;20499;-81
2023/10/24 03:24:41;;;;;;;13.93;4.75;;;;;;;15.22;69.28;99767.56;5130169;27;20372;-81
2023/10/24 03:27:11;;;;;;;14.00;5.50;;;;;;;15.09;69.47;99783.03;5117238;27;20441;-82
2023/10/24 03:29:37;;;;;;;13.73;4.88;;;;;;;15.18;69.22;99779.19;5131289;27;20028;-82
2023/10/24 03:32:03;;;;;;;10.73;5.07;;;;;;;15.13;70.12;99795.28;5131442;27;20080;-81
2023/10/24 03:34:29;;;;;;;;;;;;;;;15.09;70.00;99796.31;5132345;27;20034;-79
2023/10/24 03:36:54;;;;;;;14.32;5.13;;;;;;;15.24;69.38;99799.41;5111158;28;19911;-80
2023/10/24 03:39:20;;;;;;;15.45;6.50;;;;;;;15.04;69.79;99779.66;5131397;27;20026;-80
2023/10/24 03:41:45;;;;;;;12.52;5.72;;;;;;;15.16;69.05;99775.72;5129650;27;20421;-80
2023/10/24 03:44:10;;;;;;;;;;;;;;;15.21;69.16;99811.88;5123465;27;20104;-80
2023/10/24 03:46:36;;;;;;;17.58;5.18;;;;;;;15.30;69.73;99808.03;5110722;28;20043;-80
2023/10/24 03:49:02;;;;;;;12.13;4.78;;;;;;;15.07;69.43;99771.56;5110016;28;20031;-80
2023/10/24 03:51:27;;;;;;;;;;;;;;;15.26;68.80;99822.34;5110213;28;20027;-79
2023/10/24 03:53:53;;;;;;;15.13;6.18;;;;;;;14.96;69.38;99787.00;5110366;28;20351;-80
2023/10/24 03:56:18;;;;;;;13.20;6.00;;;;;;;15.04;69.20;99795.59;5110663;28;20047;-80
2023/10/24 03:58:44;;;;;;;14.02;5.88;;;;;;;15.01;70.07;99816.94;5091167;28;20055;-80
2023/10/24 04:01:09;;;;;;;9.98;4.75;;;;;;;14.88;70.19;99789.03;5090708;28;20421;-80
2023/10/24 04:03:35;;;;;;;;;;;;;;;14.97;70.13;99817.97;5090818;28;20028;-80
2023/10/24 04:06:00;;;;;;;20.52;7.43;;;;;;;14.91;70.02;99791.59;5105242;28;19969;-80
2023/10/24 04:08:26;;;;;;;;;;;;;;;14.95;70.12;99814.47;5090114;28;20067;-80
2023/10/24 04:10:51;;;;;;;17.77;4.80;;;;;;;14.80;70.65;99789.28;5093613;28;20828;-81
2023/10/24 04:13:16;;;;;;;;;;;;;;;14.84;70.62;99815.69;5109424;28;20031;-81
2023/10/24 04:15:42;;;;;;;16.80;6.10;;;;;;;14.74;69.93;99787.66;5094314;28;19912;-81
2023/10/24 04:18:07;;;;;;;7.05;3.83;;;;;;;14.87;69.32;99796.13;5094162;28;20100;-80
2023/10/24 04:20:33;;;;;;;17.80;5.68;;;;;;;14.86;68.97;99799.69;5094064;28;20028;-81
2023/10/24 04:23:04;;;;;;;17.42;6.40;;;;;;;14.76;69.45;99804.41;5094346;28;20039;-80
2023/10/24 04:25:30;;;;;;;14.80;5.35;;;;;;;14.71;70.10;99808.13;5093795;28;20559;-81
2023/10/24 04:27:57;;;;;;;17.38;4.97;;;;;;;14.67;71.40;99831.22;5094342;28;20036;-81
2023/10/24 04:30:22;;;;;;;11.10;5.50;;;;;;;14.63;71.50;99821.66;5094370;28;20107;-81
2023/10/24 04:32:48;;;;;;;18.25;6.72;;;;;;;14.75;71.69;99829.25;5094125;28;20119;-81
2023/10/24 04:35:13;;;;;;;;;;;;;;;14.82;72.19;99836.09;5094277;28;20024;-81
2023/10/24 04:37:39;;;;;;;13.43;5.82;;;;;;;14.86;71.50;99835.09;5094289;28;20442;-81
2023/10/24 04:40:07;;;;;;;;;;;;;;;14.84;71.68;99834.28;5093935;28;20021;-80
2023/10/24 04:42:32;;;;;;;13.52;5.95;;;;;;;14.58;72.71;99803.16;5094027;28;19916;-80
2023/10/24 04:44:58;;;;;;;24.67;5.72;;;;;;;14.65;72.59;99815.34;5093788;28;20051;-80
2023/10/24 04:47:24;;;;;;;14.35;5.82;;;;;;;14.67;72.86;99831.22;5093271;28;20055;-80
2023/10/24 04:49:50;;;;;;;20.77;6.05;;;;;;;14.76;72.18;99840.72;5093626;28;20409;-80
2023/10/24 04:52:15;;;;;;;12.50;6.72;;;;;;;14.64;71.78;99804.78;5093281;28;20028;-81
2023/10/24 04:54:41;;;;;;;29.67;5.03;;;;;;;14.81;71.31;99863.56;5094533;28;20035;-80
2023/10/24 04:57:06;;;;;;;;;;;;;;;14.73;71.52;99857.59;5093586;28;20043;-79
2023/10/24 04:59:31;;;;;;;36.03;6.28;;;;;;;14.47;71.97;99829.13;5093529;28;19978;-80
2023/10/24 05:01:57;;;;;;;21.58;6.53;;;;;;;14.72;71.34;99852.34;5093673;28;20515;-79
2023/10/24 05:04:22;;;;;;;29.05;6.80;;;;;;;14.62;71.99;99843.78;5093093;28;20028;-80
2023/10/24 05:06:48;;;;;;;21.83;6.43;;;;;;;14.75;71.78;99871.72;5092691;28;20028;-83
2023/10/24 05:09:16;;;;;;;15.65;6.22;;;;;;;14.90;71.25;99890.78;5122754;27;20484;-84
2023/10/24 05:11:41;;;;;;;15.65;6.60;;;;;;;14.97;71.09;99871.09;5103892;27;20028;-80
2023/10/24 05:14:07;;;;;;;15.13;6.47;;;;;;;15.13;71.72;99882.97;5097046;27;20393;-81
2023/10/24 05:16:32;;;;;;;17.27;5.88;;;;;;;15.30;71.59;99895.72;5103753;27;20107;-80
2023/10/24 05:18:58;;;;;;;18.92;7.30;;;;;;;15.49;71.03;99897.81;5099361;28;20131;-81
2023/10/24 05:21:23;;;;;;;24.25;8.23;;;;;;;15.52;70.87;99903.03;5102983;28;20059;-83
2023/10/24 05:23:49;;;;;;;;;;;;;;;15.66;70.62;99916.75;5093395;27;20530;-83
2023/10/24 05:26:14;;;;;;;19.58;6.65;;;;;;;15.38;70.43;99885.75;5093093;27;19947;-84
2023/10/24 05:28:39;;;;;;;20.27;5.32;;;;;;;15.49;70.45;99922.63;5092569;27;20028;-84
2023/10/24 05:31:08;;;;;;;14.85;4.65;;;;;;;15.46;71.26;99924.47;5093967;27;20039;-81
2023/10/24 05:33:35;;;;;;;17.77;6.05;;;;;;;15.43;70.87;99903.31;5099395;28;20451;-81
2023/10/24 05:36:01;;;;;;;16.55;4.90;;;;;;;15.47;71.16;99905.81;5103029;28;20151;-81
2023/10/24 05:38:26;;;;;;;32.45;5.97;;;;;;;15.69;71.33;99932.63;5098964;28;20020;-81
2023/10/24 05:40:52;;;;;;;12.60;6.75;;;;;;;15.66;71.63;99919.44;5085831;28;20425;-78
2023/10/24 05:43:17;;;;;;;;;;;;;;;15.73;72.15;99944.00;5099950;27;20027;-78
2023/10/24 05:45:42;;;;;;;14.95;6.30;;;;;;;15.88;71.67;99940.91;5102879;27;19919;-79
2023/10/24 05:48:08;;;;;;;20.85;7.05;;;;;;;16.04;71.26;99933.25;5096774;27;20040;-80
2023/10/24 05:50:34;;;;;;;;;;;;;;;16.16;71.53;99955.94;5097209;28;20027;-80
2023/10/24 05:53:00;;;;;;;30.60;5.95;;;;;;;16.24;71.34;99931.72;5104161;28;19976;-80
2023/10/24 05:55:25;;;;;;;18.13;4.95;;;;;;;16.35;72.19;99944.66;5094665;27;20028;-80
2023/10/24 05:57:51;;;;;;;20.48;6.88;;;;;;;16.70;71.68;99958.50;5104401;27;20039;-80
2023/10/24 06:00:16;;;;;;;14.35;5.70;;;;;;;16.88;70.78;99936.53;5093357;27;20028;-78
2023/10/24 06:02:42;;;;;;;29.17;5.32;;;;;;;17.00;70.16;99940.56;5094421;28;20036;-80
2023/10/24 06:05:07;;;;;;;21.63;6.63;;;;;;;17.30;69.34;99935.84;5104354;28;20115;-80
2023/10/24 06:07:33;;;;;;;16.55;5.18;;;;;;;17.45;67.73;99923.69;5093171;28;20100;-80
2023/10/24 06:09:58;;;;;;;14.57;5.20;;;;;;;17.49;67.64;99944.00;5096104;28;20031;-80
2023/10/24 06:12:24;;;;;;;12.20;6.18;;;;;;;17.56;67.93;99923.28;5099864;27;20037;-80
2023/10/24 06:14:49;;;;;;;13.00;5.40;;;;;;;17.93;67.48;99940.47;5095538;27;20028;-80
2023/10/24 06:17:17;;;;;;;15.32;5.32;;;;;;;18.31;65.88;99964.69;5096624;27;20108;-80
2023/10/24 06:19:45;;;;;;;11.20;5.63;;;;;;;18.53;64.71;99956.63;5097468;27;20047;-80
2023/10/24 06:22:10;;;;;;;14.18;5.65;;;;;;;18.52;63.60;99943.31;5097125;28;20036;-79
2023/10/24 06:24:36;;;;;;;24.90;4.78;;;;;;;18.42;64.74;99951.75;5092365;27;20044;-82
2023/10/24 06:27:01;;;;;;;14.88;4.63;;;;;;;18.78;63.52;99961.75;5100480;28;20114;-79
2023/10/24 06:29:29;;;;;;;13.65;3.63;;;;;;;19.02;61.79;99931.34;5095089;28;20027;-77
2023/10/24 06:31:55;;;;;;;18.73;5.88;;;;;;;19.23;61.03;99961.56;5096165;28;20470;-77
2023/10/24 06:34:20;;;;;;;18.65;5.72;;;;;;;19.36;60.87;99965.41;5095298;27;20022;-77
2023/10/24 06:36:46;;;;;;;20.45;5.85;;;;;;;19.25;59.81;99941.84;5091989;28;20123;-78
2023/10/24 06:39:11;;;;;;;17.92;4.68;;;;;;;19.68;60.28;99961.19;5094157;27;20047;-78
2023/10/24 06:41:36;;;;;;;15.18;5.07;;;;;;;19.45;60.60;99926.66;5093271;28;20462;-76
2023/10/24 06:44:02;;;;;;;11.20;6.05;;;;;;;19.70;58.98;99955.75;5102155;28;20488;-77
2023/10/24 06:46:27;;;;;;;14.43;4.70;;;;;;;19.70;59.07;99928.13;5101130;28;20060;-77
2023/10/24 06:48:53;;;;;;;12.52;3.95;;;;;;;20.01;59.05;99943.56;5101367;28;20028;-77
2023/10/24 06:51:18;;;;;;;9.93;3.55;;;;;;;20.34;58.40;99957.06;5101980;28;20035;-79
2023/10/24 06:53:44;;;;;;;12.38;5.70;;;;;;;20.50;56.99;99941.06;5102097;28;20031;-79
2023/10/24 06:56:09;;;;;;;25.95;5.07;;;;;;;20.63;56.93;99949.31;5101432;28;20118;-79
2023/10/24 06:58:36;;;;;;;8.88;3.97;;;;;;;20.83;56.24;99942.06;5099954;28;20040;-78
2023/10/24 07:01:02;;;;;;;13.45;4.10;;;;;;;20.85;55.20;99945.53;5093223;28;20034;-81
2023/10/24 07:03:28;;;;;;;11.90;4.47;;;;;;;20.99;53.71;99917.97;5101776;28;20027;-82
2023/10/24 07:05:54;;;;;;;16.52;4.38;;;;;;;20.91;53.60;99927.31;5090477;28;20032;-81
2023/10/24 07:08:20;;;;;;;11.85;4.57;;;;;;;20.41;53.72;99893.31;5101872;28;20043;-81
2023/10/24 07:10:47;;;;;;;10.65;5.75;;;;;;;20.58;54.24;99917.41;5101885;28;20042;-81
2023/10/24 07:13:13;;;;;;;25.10;5.07;;;;;;;20.65;53.62;99917.09;5095553;27;20034;-79
2023/10/24 07:15:39;;;;;;;7.57;3.88;;;;;;;21.02;53.69;99917.78;5094155;28;20044;-78
2023/10/24 07:18:05;;;;;;;14.35;5.90;;;;;;;21.32;52.66;99920.59;5103039;27;20035;-79
2023/10/24 07:20:35;;;;;;;9.63;4.28;;;;;;;21.74;52.09;99929.88;5102684;27;20618;-80
2023/10/24 07:23:01;;;;;;;19.65;4.30;;;;;;;22.00;51.05;99903.31;5100493;28;20063;-79
2023/10/24 07:25:27;;;;;;;12.40;5.82;;;;;;;22.25;49.87;99896.50;5095818;28;20512;-80
2023/10/24 07:27:52;;;;;;;23.60;5.60;;;;;;;22.49;50.19;99903.09;5106618;27;20031;-80
2023/10/24 07:30:18;;;;;;;9.68;4.43;;;;;;;22.86;48.70;99911.56;5083402;28;20032;-81
2023/10/24 07:32:43;;;;;;;15.80;7.32;;;;;;;22.76;49.33;99896.09;5103671;28;20039;-80
2023/10/24 07:35:09;;;;;;;19.55;3.85;;;;;;;23.14;48.17;99914.34;5095029;28;20491;-80
2023/10/24 07:37:36;;;;;;;14.25;5.97;;;;;;;22.87;48.40;99907.91;5101939;28;20032;-80
2023/10/24 07:40:02;;;;;;;19.67;5.57;;;;;;;22.88;50.30;99908.78;5090887;28;20024;-79
2023/10/24 07:42:28;;;;;;;11.65;5.57;;;;;;;23.23;47.90;99901.19;5089947;28;20032;-78
2023/10/24 07:44:54;;;;;;;18.27;6.28;;;;;;;23.27;47.18;99901.84;5090321;28;20035;-80
2023/10/24 07:47:19;;;;;;;29.45;6.90;;;;;;;23.35;47.62;99887.88;5096959;28;20032;-82
2023/10/24 07:49:45;;;;;;;16.23;5.28;;;;;;;23.40;47.74;99880.38;5122348;28;20429;-83
2023/10/24 07:52:10;;;;;;;13.35;5.45;;;;;;;23.41;47.73;99856.03;5097019;28;20031;-82
2023/10/24 07:54:36;;;;;;;14.38;6.00;;;;;;;23.89;47.35;99898.69;5096744;28;20028;-80
2023/10/24 07:57:02;;;;;;;18.83;4.65;;;;;;;23.96;46.08;99885.69;5110286;28;20408;-80
2023/10/24 07:59:29;;;;;;;17.15;4.50;;;;;;;23.89;45.93;99887.91;5110457;28;20417;-81
2023/10/24 08:01:54;;;;;;;14.38;5.88;;;;;;;24.47;44.02;99888.44;5110868;28;20081;-81
2023/10/24 08:04:20;;;;;;;20.10;5.40;;;;;;;24.50;44.12;99860.41;5105509;28;20623;-81
2023/10/24 08:06:45;;;;;;;24.58;5.40;;;;;;;24.44;43.64;99872.47;5090385;28;20505;-80
2023/10/24 08:09:10;;;;;;;10.30;3.97;;;;;;;24.59;43.00;99875.97;5090395;28;20085;-80
2023/10/24 08:11:36;;;;;;;14.45;4.18;;;;;;;24.53;42.71;99865.59;5117067;28;20470;-80
2023/10/24 08:14:01;;;;;;;12.15;3.22;;;;;;;24.37;42.98;99863.09;5090431;28;20028;-84
2023/10/24 08:16:27;;;;;;;18.40;5.55;;;;;;;24.25;42.20;99862.13;5090632;28;20028;-82
2023/10/24 08:18:52;;;;;;;10.93;4.00;;;;;;;24.38;43.72;99848.66;5107400;28;20031;-81
2023/10/24 08:21:18;;;;;;;11.15;3.72;;;;;;;24.51;42.75;99827.06;5097014;28;20410;-78
2023/10/24 08:23:43;;;;;;;17.13;4.50;;;;;;;24.74;41.82;99838.09;5097619;28;20031;-81
2023/10/24 08:26:08;;;;;;;12.63;4.38;;;;;;;24.82;42.66;99844.66;5091358;28;20047;-81
2023/10/24 08:28:34;;;;;;;14.98;4.60;;;;;;;25.07;42.18;99859.06;5104052;28;20055;-81
2023/10/24 08:30:59;;;;;;;11.35;4.45;;;;;;;24.79;42.56;99846.69;5089299;28;20063;-81
2023/10/24 08:33:25;;;;;;;16.50;5.63;;;;;;;25.07;40.68;99831.22;5088641;28;20032;-81
2023/10/24 08:35:50;;;;;;;15.85;4.10;;;;;;;25.08;41.04;99847.28;5089321;28;20035;-80
2023/10/24 08:38:16;;;;;;;9.05;3.50;;;;;;;25.20;40.35;99842.84;5090485;28;20545;-81
2023/10/24 08:40:42;;;;;;;11.70;4.00;;;;;;;24.81;41.33;99826.75;5110156;28;20051;-82
2023/10/24 08:43:10;;;;;;;8.75;2.85;;;;;;;25.02;40.72;99815.34;5098754;28;20056;-81
2023/10/24 08:45:36;;;;;;;8.95;4.00;;;;;;;25.05;41.09;99816.97;5089744;28;20024;-81
2023/10/24 08:48:05;;;;;;;7.68;3.15;;;;;;;24.76;41.29;99836.13;5089578;28;20032;-81
2023/10/24 08:50:34;;;;;;;12.38;3.80;;;;;;;24.46;41.64;99831.94;5107300;28;20052;-86
2023/10/24 08:53:00;;;;;;;16.70;3.92;;;;;;;24.54;41.41;99826.00;5109724;28;20031;-81
2023/10/24 08:55:27;;;;;;;9.05;4.25;;;;;;;24.55;41.66;99820.50;5111551;28;20032;-82
2023/10/24 08:57:54;;;;;;;21.10;3.72;;;;;;;24.55;42.76;99831.28;5112783;28;20073;-82
2023/10/24 09:00:19;;;;;;;20.45;3.72;;;;;;;24.75;42.19;99802.91;5113436;28;20035;-82
2023/10/24 09:02:45;;;;;;;7.05;3.15;;;;;;;24.88;40.29;99805.56;5112501;28;20028;-82
2023/10/24 09:05:13;;;;;;;12.90;3.78;;;;;;;25.01;40.77;99825.31;5113585;28;20030;-82
2023/10/24 09:07:39;;;;;;;15.55;3.92;;;;;;;24.65;40.69;99799.16;5112313;28;20035;-82
2023/10/24 09:10:05;;;;;;;11.00;2.95;;;;;;;25.07;41.45;99837.50;5095209;28;20032;-81
2023/10/24 09:12:32;;;;;;;8.80;3.22;;;;;;;24.83;40.78;99770.00;5112731;28;20474;-85
2023/10/24 09:14:59;;;;;;;10.65;4.00;;;;;;;25.19;40.41;99797.91;5112666;28;20520;-82
2023/10/24 09:17:25;;;;;;;11.80;3.47;;;;;;;25.22;40.46;99800.38;5112502;28;20128;-82
2023/10/24 09:19:51;;;;;;;11.25;2.83;;;;;;;24.78;41.00;99756.84;5112265;28;20825;-82
2023/10/24 09:22:18;;;;;;;12.13;3.55;;;;;;;25.24;39.67;99805.69;5112548;28;20110;-82
2023/10/24 09:24:47;;;;;;;18.10;4.60;;;;;;;25.20;40.30;99805.06;5112520;28;20035;-80
2023/10/24 09:27:14;;;;;;;16.65;3.60;;;;;;;25.25;40.72;99802.84;5112770;28;20063;-81
2023/10/24 09:29:40;;;;;;;11.63;3.70;;;;;;;25.56;39.81;99803.28;5112089;28;20039;-80
2023/10/24 09:32:06;;;;;;;9.23;4.28;;;;;;;25.73;39.62;99793.91;5113009;28;20034;-80
2023/10/24 09:34:33;;;;;;;9.40;3.30;;;;;;;25.82;38.89;99784.22;5111934;28;20031;-83
2023/10/24 09:37:10;;;;;;;14.00;3.72;;;;;;;25.49;38.58;99765.09;5112457;28;20031;-81
2023/10/24 09:39:51;;;;;;;11.27;2.83;;;;;;;25.83;37.65;99754.41;5111944;28;20032;-81
2023/10/24 09:42:24;;;;;;;9.88;2.90;;;;;;;25.60;38.17;99761.56;5112476;28;20024;-81
2023/10/24 09:44:52;;;;;;;18.23;3.22;;;;;;;25.68;38.33;99745.63;5106542;28;20090;-84
2023/10/24 09:47:18;;;;;;;9.75;3.08;;;;;;;25.90;38.67;99758.34;5091949;28;20055;-80
2023/10/24 09:49:46;;;;;;;25.73;4.07;;;;;;;25.82;38.59;99746.41;5116799;27;20031;-81
2023/10/24 09:52:12;;;;;;;9.15;3.83;;;;;;;26.01;38.40;99732.34;5116872;27;20028;-80
2023/10/24 09:54:39;;;;;;;13.57;3.83;;;;;;;26.22;38.10;99752.25;5107240;27;20031;-80
2023/10/24 09:57:05;;;;;;;10.30;4.10;;;;;;;26.15;38.60;99728.53;5091505;28;20040;-83
2023/10/24 09:59:31;;;;;;;10.32;2.30;;;;;;;26.30;38.52;99729.16;5092812;27;20044;-84
2023/10/24 10:01:58;;;;;;;11.57;3.10;;;;;;;26.57;37.65;99734.16;5089802;28;20031;-81
2023/10/24 10:04:25;;;;;;;6.13;3.38;;;;;;;26.70;36.81;99721.41;5089969;27;20413;-80
2023/10/24 10:06:51;;;;;;;14.70;2.80;;;;;;;26.75;36.56;99730.00;5089027;27;20097;-80
2023/10/24 10:09:19;;;;;;;12.43;4.97;;;;;;;26.91;36.80;99712.50;5089983;27;20027;-80
2023/10/24 10:11:47;;;;;;;21.13;3.70;;;;;;;26.95;36.55;99698.56;5100458;28;20034;-82
2023/10/24 10:14:25;;;;;;;11.80;2.75;;;;;;;27.00;36.27;99694.63;5107666;27;20471;-83
2023/10/24 10:17:01;;;;;;;9.25;3.47;;;;;;;27.14;35.45;99710.56;5103921;28;20027;-80
2023/10/24 10:20:13;;;;;;;18.25;2.50;;;;;;;27.22;35.64;99708.09;5110095;28;20058;-82
2023/10/24 10:22:48;;;;;;;8.02;2.65;;;;;;;27.31;35.12;99707.34;5025798;28;20132;-82
2023/10/24 10:25:49;;;;;;;7.38;3.05;;;;;;;27.19;36.03;99704.78;5027466;28;20056;-82
2023/10/24 10:28:33;;;;;;;6.68;2.03;;;;;;;27.18;35.84;99701.22;5026089;28;20042;-83
2023/10/24 10:31:19;;;;;;;7.90;2.38;;;;;;;26.89;35.49;99707.22;5020652;28;20030;-84
2023/10/24 10:33:45;;;;;;;9.52;3.33;;;;;;;26.59;36.33;99670.00;5020139;28;20045;-84
2023/10/24 10:36:12;;;;;;;7.78;2.90;;;;;;;26.85;36.42;99675.13;5011713;28;20026;-84
2023/10/24 10:38:44;;;;;;;10.23;2.65;;;;;;;27.16;35.67;99705.91;5011152;28;20095;-86
2023/10/24 10:41:22;;;;;;;10.25;3.17;;;;;;;26.97;35.88;99698.44;5012044;28;20034;-83
2023/10/24 10:43:59;;;;;;;13.15;3.20;;;;;;;26.84;35.22;99646.38;5011306;28;20029;-83
2023/10/24 10:46:26;;;;;;;8.57;2.95;;;;;;;26.88;35.31;99670.34;5028207;28;20045;-83
2023/10/24 10:48:52;;;;;;;8.55;3.00;;;;;;;26.62;35.50;99648.97;5010313;28;20144;-83
2023/10/24 10:51:25;;;;;;;11.93;3.13;;;;;;;26.85;34.52;99651.66;5012513;28;20522;-82
2023/10/24 10:54:19;;;;;;;11.57;3.65;;;;;;;27.28;34.13;99674.22;5005456;28;20053;-84
2023/10/24 10:56:47;;;;;;;8.70;3.45;;;;;;;26.77;34.23;99597.31;5019576;28;20482;-85
2023/10/24 10:59:31;;;;;;;16.45;3.22;;;;;;;27.15;34.25;99675.25;5052990;28;20535;-83
2023/10/24 11:02:09;;;;;;;6.28;2.15;;;;;;;27.30;34.46;99675.81;5108797;28;20474;-85
2023/10/24 11:04:35;;;;;;;5.32;2.30;;;;;;;27.08;35.44;99638.00;5091281;28;20062;-84
2023/10/24 11:07:03;;;;;;;8.60;2.55;;;;;;;27.15;34.54;99628.38;5107125;28;20020;-85
2023/10/24 11:09:38;;;;;;;12.35;2.95;;;;;;;27.25;34.28;99626.63;5108883;28;20045;-86
2023/10/24 11:12:19;;;;;;;;;;;;;;;27.51;33.93;99662.31;5109862;28;20110;-84
2023/10/24 11:15:07;;;;;;;14.38;2.92;;;;;;;27.46;33.26;99620.34;5100910;28;19996;-84
2023/10/24 11:17:33;;;;;;;9.82;2.95;;;;;;;27.63;33.75;99625.16;5106251;28;20023;-85
2023/10/24 11:20:00;;;;;;;8.50;2.33;;;;;;;27.49;33.56;99604.69;5108672;28;20046;-88
2023/10/24 11:22:25;;;;;;;6.25;2.30;;;;;;;27.72;33.19;99628.91;5103684;27;20019;-83
2023/10/24 11:24:51;;;;;;;9.35;2.92;;;;;;;27.62;32.41;99626.16;5087958;28;20118;-87
2023/10/24 11:27:17;;;;;;;11.27;1.98;;;;;;;27.63;33.03;99641.41;5095714;27;20430;-84
2023/10/24 11:29:43;;;;;;;12.38;3.17;;;;;;;27.50;33.08;99583.91;5092787;27;20039;-83